sensor_id;sensor_type;location;lat;lon;timestamp;temperature;humidity
21259;DHT22;10787;53.364;-1.480;2024-01-11T00:00:12;4.90;99.90
21259;DHT22;10787;53.364;-1.480;2024-01-11T00:02:57;4.80;99.90
21259;DHT22;10787;53.364;-1.480;2024-01-11T00:05:42;4.90;99.90
21259;DHT22;10787;53.364;-1.480;2024-01-11T00:08:26;4.90;99.90
21259;DHT22;10787;53.364;-1.480;2024-01-11T00:11:10;4.90;99.90
21259;DHT22;10787;53.364;-1.480;2024-01-11T00:13:54;4.90;99.90
21259;DHT22;10787;53.364;-1.480;2024-01-11T00:16:38;4.90;99.90
21259;DHT22;10787;53.364;-1.480;2024-01-11T00:19:23;4.90;99.90
21259;DHT22;10787;53.364;-1.480;2024-01-11T00:22:07;4.90;99.90
21259;DHT22;10787;53.364;-1.480;2024-01-11T00:24:52;4.90;99.90
21259;DHT22;10787;53.364;-1.480;2024-01-11T00:27:36;4.90;99.90
21259;DHT22;10787;53.364;-1.480;2024-01-11T00:30:21;4.90;99.90
21259;DHT22;10787;53.364;-1.480;2024-01-11T00:33:07;4.90;99.90
21259;DHT22;10787;53.364;-1.480;2024-01-11T00:35:53;4.90;99.90
21259;DHT22;10787;53.364;-1.480;2024-01-11T00:38:37;4.90;99.90
21259;DHT22;10787;53.364;-1.480;2024-01-11T00:41:21;4.90;99.90
21259;DHT22;10787;53.364;-1.480;2024-01-11T00:44:05;4.90;99.90
21259;DHT22;10787;53.364;-1.480;2024-01-11T00:46:51;4.90;99.90
21259;DHT22;10787;53.364;-1.480;2024-01-11T00:49:35;4.90;99.90
21259;DHT22;10787;53.364;-1.480;2024-01-11T00:52:19;4.90;99.90
21259;DHT22;10787;53.364;-1.480;2024-01-11T00:55:04;4.90;99.90
21259;DHT22;10787;53.364;-1.480;2024-01-11T00:57:48;4.90;99.90
21259;DHT22;10787;53.364;-1.480;2024-01-11T01:00:33;4.90;99.90
21259;DHT22;10787;53.364;-1.480;2024-01-11T01:03:17;4.90;99.90
21259;DHT22;10787;53.364;-1.480;2024-01-11T01:06:01;4.80;99.90
21259;DHT22;10787;53.364;-1.480;2024-01-11T01:08:46;4.90;99.90
21259;DHT22;10787;53.364;-1.480;2024-01-11T01:11:31;4.90;99.90
21259;DHT22;10787;53.364;-1.480;2024-01-11T01:14:15;4.90;99.90
21259;DHT22;10787;53.364;-1.480;2024-01-11T01:17:00;4.90;99.90
21259;DHT22;10787;53.364;-1.480;2024-01-11T01:19:44;4.90;99.90
21259;DHT22;10787;53.364;-1.480;2024-01-11T01:22:28;4.90;99.90
21259;DHT22;10787;53.364;-1.480;2024-01-11T01:25:13;4.90;99.90
21259;DHT22;10787;53.364;-1.480;2024-01-11T01:27:57;4.90;99.90
21259;DHT22;10787;53.364;-1.480;2024-01-11T01:30:43;4.90;99.90
21259;DHT22;10787;53.364;-1.480;2024-01-11T01:33:27;4.90;99.90
21259;DHT22;10787;53.364;-1.480;2024-01-11T01:36:12;4.90;99.90
21259;DHT22;10787;53.364;-1.480;2024-01-11T01:38:56;4.80;99.90
21259;DHT22;10787;53.364;-1.480;2024-01-11T01:41:40;4.80;99.90
21259;DHT22;10787;53.364;-1.480;2024-01-11T01:44:25;4.80;99.90
21259;DHT22;10787;53.364;-1.480;2024-01-11T01:47:10;4.80;99.90
21259;DHT22;10787;53.364;-1.480;2024-01-11T01:49:56;4.80;99.90
21259;DHT22;10787;53.364;-1.480;2024-01-11T01:52:41;4.90;99.90
21259;DHT22;10787;53.364;-1.480;2024-01-11T01:55:27;4.80;99.90
21259;DHT22;10787;53.364;-1.480;2024-01-11T01:58:13;4.80;99.90
21259;DHT22;10787;53.364;-1.480;2024-01-11T02:00:57;4.80;99.90
21259;DHT22;10787;53.364;-1.480;2024-01-11T02:03:43;4.80;99.90
21259;DHT22;10787;53.364;-1.480;2024-01-11T02:06:28;4.90;99.90
21259;DHT22;10787;53.364;-1.480;2024-01-11T02:09:17;4.80;99.90
21259;DHT22;10787;53.364;-1.480;2024-01-11T02:12:02;4.90;99.90
21259;DHT22;10787;53.364;-1.480;2024-01-11T02:14:47;4.90;99.90
21259;DHT22;10787;53.364;-1.480;2024-01-11T02:17:32;4.80;99.90
21259;DHT22;10787;53.364;-1.480;2024-01-11T02:20:16;4.90;99.90
21259;DHT22;10787;53.364;-1.480;2024-01-11T02:23:12;4.80;99.90
21259;DHT22;10787;53.364;-1.480;2024-01-11T02:25:58;4.80;99.90
21259;DHT22;10787;53.364;-1.480;2024-01-11T02:28:45;4.80;99.90
21259;DHT22;10787;53.364;-1.480;2024-01-11T02:31:29;4.80;99.90
21259;DHT22;10787;53.364;-1.480;2024-01-11T02:34:14;4.80;99.90
21259;DHT22;10787;53.364;-1.480;2024-01-11T02:36:59;4.80;99.90
21259;DHT22;10787;53.364;-1.480;2024-01-11T02:39:43;4.80;99.90
21259;DHT22;10787;53.364;-1.480;2024-01-11T02:42:28;4.80;99.90
21259;DHT22;10787;53.364;-1.480;2024-01-11T02:45:12;4.90;99.90
21259;DHT22;10787;53.364;-1.480;2024-01-11T02:47:56;4.90;99.90
21259;DHT22;10787;53.364;-1.480;2024-01-11T02:50:41;4.90;99.90
21259;DHT22;10787;53.364;-1.480;2024-01-11T02:53:25;4.90;99.90
21259;DHT22;10787;53.364;-1.480;2024-01-11T02:56:09;4.90;99.90
21259;DHT22;10787;53.364;-1.480;2024-01-11T02:58:53;4.90;99.90
21259;DHT22;10787;53.364;-1.480;2024-01-11T03:01:37;4.90;99.90
21259;DHT22;10787;53.364;-1.480;2024-01-11T03:04:22;4.80;99.90
21259;DHT22;10787;53.364;-1.480;2024-01-11T03:07:06;4.90;99.90
21259;DHT22;10787;53.364;-1.480;2024-01-11T03:09:50;4.90;99.90
21259;DHT22;10787;53.364;-1.480;2024-01-11T03:12:35;4.80;99.90
21259;DHT22;10787;53.364;-1.480;2024-01-11T03:15:19;4.80;99.90
21259;DHT22;10787;53.364;-1.480;2024-01-11T03:18:03;4.80;99.90
21259;DHT22;10787;53.364;-1.480;2024-01-11T03:20:48;4.80;99.90
21259;DHT22;10787;53.364;-1.480;2024-01-11T03:23:32;4.80;99.90
21259;DHT22;10787;53.364;-1.480;2024-01-11T03:26:16;4.80;99.90
21259;DHT22;10787;53.364;-1.480;2024-01-11T03:29:01;4.80;99.90
21259;DHT22;10787;53.364;-1.480;2024-01-11T03:31:45;4.80;99.90
21259;DHT22;10787;53.364;-1.480;2024-01-11T03:34:29;4.80;99.90
21259;DHT22;10787;53.364;-1.480;2024-01-11T03:37:13;4.80;99.90
21259;DHT22;10787;53.364;-1.480;2024-01-11T03:39:58;4.80;99.90
21259;DHT22;10787;53.364;-1.480;2024-01-11T03:42:42;4.80;99.90
21259;DHT22;10787;53.364;-1.480;2024-01-11T03:45:28;4.80;99.90
21259;DHT22;10787;53.364;-1.480;2024-01-11T03:48:12;4.80;99.90
21259;DHT22;10787;53.364;-1.480;2024-01-11T03:50:56;4.80;99.90
21259;DHT22;10787;53.364;-1.480;2024-01-11T03:53:41;4.80;99.90
21259;DHT22;10787;53.364;-1.480;2024-01-11T03:56:26;4.90;99.90
21259;DHT22;10787;53.364;-1.480;2024-01-11T03:59:10;4.80;99.90
21259;DHT22;10787;53.364;-1.480;2024-01-11T04:01:57;4.80;99.90
21259;DHT22;10787;53.364;-1.480;2024-01-11T04:04:41;4.90;99.90
21259;DHT22;10787;53.364;-1.480;2024-01-11T04:07:26;4.90;99.90
21259;DHT22;10787;53.364;-1.480;2024-01-11T04:10:11;4.90;99.90
21259;DHT22;10787;53.364;-1.480;2024-01-11T04:12:55;4.90;99.90
21259;DHT22;10787;53.364;-1.480;2024-01-11T04:15:40;4.90;99.90
21259;DHT22;10787;53.364;-1.480;2024-01-11T04:18:24;4.90;99.90
21259;DHT22;10787;53.364;-1.480;2024-01-11T04:21:27;4.90;99.90
21259;DHT22;10787;53.364;-1.480;2024-01-11T04:24:14;4.90;99.90
21259;DHT22;10787;53.364;-1.480;2024-01-11T04:26:59;4.90;99.90
21259;DHT22;10787;53.364;-1.480;2024-01-11T04:29:43;4.90;99.90
21259;DHT22;10787;53.364;-1.480;2024-01-11T04:32:26;4.90;99.90
21259;DHT22;10787;53.364;-1.480;2024-01-11T04:35:11;4.80;99.90
21259;DHT22;10787;53.364;-1.480;2024-01-11T04:37:56;4.80;99.90
21259;DHT22;10787;53.364;-1.480;2024-01-11T04:40:40;4.80;99.90
21259;DHT22;10787;53.364;-1.480;2024-01-11T04:43:25;4.80;99.90
21259;DHT22;10787;53.364;-1.480;2024-01-11T04:46:19;4.80;99.90
21259;DHT22;10787;53.364;-1.480;2024-01-11T04:49:04;4.80;99.90
21259;DHT22;10787;53.364;-1.480;2024-01-11T04:51:48;4.80;99.90
21259;DHT22;10787;53.364;-1.480;2024-01-11T04:54:32;4.80;99.90
21259;DHT22;10787;53.364;-1.480;2024-01-11T04:57:16;4.80;99.90
21259;DHT22;10787;53.364;-1.480;2024-01-11T05:00:01;4.80;99.90
21259;DHT22;10787;53.364;-1.480;2024-01-11T05:02:45;4.80;99.90
21259;DHT22;10787;53.364;-1.480;2024-01-11T05:05:30;4.80;99.90
21259;DHT22;10787;53.364;-1.480;2024-01-11T05:08:14;4.80;99.90
21259;DHT22;10787;53.364;-1.480;2024-01-11T05:10:58;4.80;99.90
21259;DHT22;10787;53.364;-1.480;2024-01-11T05:13:42;4.80;99.90
21259;DHT22;10787;53.364;-1.480;2024-01-11T05:16:29;4.90;99.90
21259;DHT22;10787;53.364;-1.480;2024-01-11T05:19:13;4.90;99.90
21259;DHT22;10787;53.364;-1.480;2024-01-11T05:21:57;4.90;99.90
21259;DHT22;10787;53.364;-1.480;2024-01-11T05:24:42;4.90;99.90
21259;DHT22;10787;53.364;-1.480;2024-01-11T05:27:26;4.90;99.90
21259;DHT22;10787;53.364;-1.480;2024-01-11T05:30:10;4.90;99.90
21259;DHT22;10787;53.364;-1.480;2024-01-11T05:32:55;4.90;99.90
21259;DHT22;10787;53.364;-1.480;2024-01-11T05:35:39;4.90;99.90
21259;DHT22;10787;53.364;-1.480;2024-01-11T05:38:24;4.90;99.90
21259;DHT22;10787;53.364;-1.480;2024-01-11T05:41:08;4.90;99.90
21259;DHT22;10787;53.364;-1.480;2024-01-11T05:43:53;4.90;99.90
21259;DHT22;10787;53.364;-1.480;2024-01-11T05:46:37;4.90;99.90
21259;DHT22;10787;53.364;-1.480;2024-01-11T05:49:21;4.90;99.90
21259;DHT22;10787;53.364;-1.480;2024-01-11T05:52:05;4.90;99.90
21259;DHT22;10787;53.364;-1.480;2024-01-11T05:54:49;4.90;99.90
21259;DHT22;10787;53.364;-1.480;2024-01-11T05:57:34;4.90;99.90
21259;DHT22;10787;53.364;-1.480;2024-01-11T06:00:19;4.90;99.90
21259;DHT22;10787;53.364;-1.480;2024-01-11T06:03:03;4.90;99.90
21259;DHT22;10787;53.364;-1.480;2024-01-11T06:05:48;4.90;99.90
21259;DHT22;10787;53.364;-1.480;2024-01-11T06:08:32;4.90;99.90
21259;DHT22;10787;53.364;-1.480;2024-01-11T06:11:17;4.90;99.90
21259;DHT22;10787;53.364;-1.480;2024-01-11T06:14:02;4.90;99.90
21259;DHT22;10787;53.364;-1.480;2024-01-11T06:16:47;4.90;99.90
21259;DHT22;10787;53.364;-1.480;2024-01-11T06:19:31;4.90;99.90
21259;DHT22;10787;53.364;-1.480;2024-01-11T06:22:15;4.90;99.90
21259;DHT22;10787;53.364;-1.480;2024-01-11T06:25:00;4.90;99.90
21259;DHT22;10787;53.364;-1.480;2024-01-11T06:27:46;5.00;99.90
21259;DHT22;10787;53.364;-1.480;2024-01-11T06:30:31;5.00;99.90
21259;DHT22;10787;53.364;-1.480;2024-01-11T06:33:15;5.00;99.90
21259;DHT22;10787;53.364;-1.480;2024-01-11T06:35:59;5.10;99.90
21259;DHT22;10787;53.364;-1.480;2024-01-11T06:38:42;5.10;99.90
21259;DHT22;10787;53.364;-1.480;2024-01-11T06:41:27;5.10;99.90
21259;DHT22;10787;53.364;-1.480;2024-01-11T06:44:11;5.20;99.90
21259;DHT22;10787;53.364;-1.480;2024-01-11T06:46:55;5.30;99.90
21259;DHT22;10787;53.364;-1.480;2024-01-11T06:49:40;5.60;99.90
21259;DHT22;10787;53.364;-1.480;2024-01-11T06:52:24;5.70;99.90
21259;DHT22;10787;53.364;-1.480;2024-01-11T06:55:09;5.70;99.90
21259;DHT22;10787;53.364;-1.480;2024-01-11T06:57:55;5.80;99.90
21259;DHT22;10787;53.364;-1.480;2024-01-11T07:00:39;5.70;99.90
21259;DHT22;10787;53.364;-1.480;2024-01-11T07:03:27;5.70;99.90
21259;DHT22;10787;53.364;-1.480;2024-01-11T07:06:11;5.60;99.90
21259;DHT22;10787;53.364;-1.480;2024-01-11T07:08:56;5.50;99.90
21259;DHT22;10787;53.364;-1.480;2024-01-11T07:11:40;5.50;99.90
21259;DHT22;10787;53.364;-1.480;2024-01-11T07:14:24;5.50;99.90
21259;DHT22;10787;53.364;-1.480;2024-01-11T07:17:09;5.40;99.90
21259;DHT22;10787;53.364;-1.480;2024-01-11T07:19:53;5.40;99.90
21259;DHT22;10787;53.364;-1.480;2024-01-11T07:22:37;5.30;99.90
21259;DHT22;10787;53.364;-1.480;2024-01-11T07:25:21;5.30;99.90
21259;DHT22;10787;53.364;-1.480;2024-01-11T07:28:06;5.30;99.90
21259;DHT22;10787;53.364;-1.480;2024-01-11T07:30:51;5.30;99.90
21259;DHT22;10787;53.364;-1.480;2024-01-11T07:33:36;5.30;99.90
21259;DHT22;10787;53.364;-1.480;2024-01-11T07:36:20;5.30;99.90
21259;DHT22;10787;53.364;-1.480;2024-01-11T07:39:04;5.30;99.90
21259;DHT22;10787;53.364;-1.480;2024-01-11T07:41:48;5.30;99.90
21259;DHT22;10787;53.364;-1.480;2024-01-11T07:44:33;5.30;99.90
21259;DHT22;10787;53.364;-1.480;2024-01-11T07:47:17;5.20;99.90
21259;DHT22;10787;53.364;-1.480;2024-01-11T07:50:02;5.20;99.90
21259;DHT22;10787;53.364;-1.480;2024-01-11T07:52:47;5.20;99.90
21259;DHT22;10787;53.364;-1.480;2024-01-11T07:55:31;5.30;99.90
21259;DHT22;10787;53.364;-1.480;2024-01-11T07:58:15;5.20;99.90
21259;DHT22;10787;53.364;-1.480;2024-01-11T08:01:00;5.30;99.90
21259;DHT22;10787;53.364;-1.480;2024-01-11T08:03:45;5.30;99.90
21259;DHT22;10787;53.364;-1.480;2024-01-11T08:06:29;5.30;99.90
21259;DHT22;10787;53.364;-1.480;2024-01-11T08:09:14;5.30;99.90
21259;DHT22;10787;53.364;-1.480;2024-01-11T08:11:59;5.30;99.90
21259;DHT22;10787;53.364;-1.480;2024-01-11T08:14:43;5.30;99.90
21259;DHT22;10787;53.364;-1.480;2024-01-11T08:17:29;5.30;99.90
21259;DHT22;10787;53.364;-1.480;2024-01-11T08:20:14;5.30;99.90
21259;DHT22;10787;53.364;-1.480;2024-01-11T08:22:59;5.30;99.90
21259;DHT22;10787;53.364;-1.480;2024-01-11T08:25:44;5.30;99.90
21259;DHT22;10787;53.364;-1.480;2024-01-11T08:28:28;5.30;99.90
21259;DHT22;10787;53.364;-1.480;2024-01-11T08:31:12;5.30;99.90
21259;DHT22;10787;53.364;-1.480;2024-01-11T08:33:57;5.40;99.90
21259;DHT22;10787;53.364;-1.480;2024-01-11T08:36:41;5.40;99.90
21259;DHT22;10787;53.364;-1.480;2024-01-11T08:39:25;5.30;99.90
21259;DHT22;10787;53.364;-1.480;2024-01-11T08:42:09;5.30;99.90
21259;DHT22;10787;53.364;-1.480;2024-01-11T08:44:54;5.30;99.90
21259;DHT22;10787;53.364;-1.480;2024-01-11T08:47:38;5.30;99.90
21259;DHT22;10787;53.364;-1.480;2024-01-11T08:50:23;5.40;99.90
21259;DHT22;10787;53.364;-1.480;2024-01-11T08:53:07;5.40;99.90
21259;DHT22;10787;53.364;-1.480;2024-01-11T08:55:51;5.40;99.90
21259;DHT22;10787;53.364;-1.480;2024-01-11T08:58:37;5.40;99.90
21259;DHT22;10787;53.364;-1.480;2024-01-11T09:01:21;5.40;99.90
21259;DHT22;10787;53.364;-1.480;2024-01-11T09:04:06;5.40;99.90
21259;DHT22;10787;53.364;-1.480;2024-01-11T09:06:52;5.40;99.90
21259;DHT22;10787;53.364;-1.480;2024-01-11T09:09:36;5.40;99.90
21259;DHT22;10787;53.364;-1.480;2024-01-11T09:12:20;5.50;99.90
21259;DHT22;10787;53.364;-1.480;2024-01-11T09:15:04;5.60;99.90
21259;DHT22;10787;53.364;-1.480;2024-01-11T09:17:49;5.60;99.90
21259;DHT22;10787;53.364;-1.480;2024-01-11T09:20:35;5.60;99.90
21259;DHT22;10787;53.364;-1.480;2024-01-11T09:23:19;5.60;99.90
21259;DHT22;10787;53.364;-1.480;2024-01-11T09:26:04;5.60;99.90
21259;DHT22;10787;53.364;-1.480;2024-01-11T09:28:49;5.60;99.90
21259;DHT22;10787;53.364;-1.480;2024-01-11T09:31:33;5.70;99.90
21259;DHT22;10787;53.364;-1.480;2024-01-11T09:34:18;5.70;99.90
21259;DHT22;10787;53.364;-1.480;2024-01-11T09:37:02;5.70;99.90
21259;DHT22;10787;53.364;-1.480;2024-01-11T09:39:47;5.70;99.90
21259;DHT22;10787;53.364;-1.480;2024-01-11T09:42:32;5.80;99.90
21259;DHT22;10787;53.364;-1.480;2024-01-11T09:45:17;5.80;99.90
21259;DHT22;10787;53.364;-1.480;2024-01-11T09:48:02;5.80;99.90
21259;DHT22;10787;53.364;-1.480;2024-01-11T09:50:47;5.80;99.90
21259;DHT22;10787;53.364;-1.480;2024-01-11T09:53:33;5.80;99.90
21259;DHT22;10787;53.364;-1.480;2024-01-11T09:56:18;5.80;99.90
21259;DHT22;10787;53.364;-1.480;2024-01-11T09:59:04;5.80;99.90
21259;DHT22;10787;53.364;-1.480;2024-01-11T10:01:51;5.80;99.90
21259;DHT22;10787;53.364;-1.480;2024-01-11T10:04:35;5.80;99.90
21259;DHT22;10787;53.364;-1.480;2024-01-11T10:07:24;5.80;99.90
21259;DHT22;10787;53.364;-1.480;2024-01-11T10:10:09;5.90;99.90
21259;DHT22;10787;53.364;-1.480;2024-01-11T10:12:53;5.90;99.90
21259;DHT22;10787;53.364;-1.480;2024-01-11T10:15:37;5.80;99.90
21259;DHT22;10787;53.364;-1.480;2024-01-11T10:18:22;5.90;99.90
21259;DHT22;10787;53.364;-1.480;2024-01-11T10:21:07;5.90;99.90
21259;DHT22;10787;53.364;-1.480;2024-01-11T10:23:53;5.90;99.90
21259;DHT22;10787;53.364;-1.480;2024-01-11T10:26:37;5.90;99.90
21259;DHT22;10787;53.364;-1.480;2024-01-11T10:29:22;5.90;99.90
21259;DHT22;10787;53.364;-1.480;2024-01-11T10:32:07;6.00;99.90
21259;DHT22;10787;53.364;-1.480;2024-01-11T10:34:53;6.10;99.90
21259;DHT22;10787;53.364;-1.480;2024-01-11T10:37:37;6.20;99.90
21259;DHT22;10787;53.364;-1.480;2024-01-11T10:40:25;6.30;99.90
21259;DHT22;10787;53.364;-1.480;2024-01-11T10:43:10;6.30;99.90
21259;DHT22;10787;53.364;-1.480;2024-01-11T10:46:00;6.30;99.90
21259;DHT22;10787;53.364;-1.480;2024-01-11T10:48:48;6.30;99.90
21259;DHT22;10787;53.364;-1.480;2024-01-11T10:51:38;6.30;99.90
21259;DHT22;10787;53.364;-1.480;2024-01-11T10:54:24;6.20;99.90
21259;DHT22;10787;53.364;-1.480;2024-01-11T10:57:08;6.20;99.90
21259;DHT22;10787;53.364;-1.480;2024-01-11T10:59:54;6.20;99.90
21259;DHT22;10787;53.364;-1.480;2024-01-11T11:02:39;6.20;99.90
21259;DHT22;10787;53.364;-1.480;2024-01-11T11:05:24;6.20;99.90
21259;DHT22;10787;53.364;-1.480;2024-01-11T11:08:09;6.20;99.90
21259;DHT22;10787;53.364;-1.480;2024-01-11T11:10:59;6.30;99.90
21259;DHT22;10787;53.364;-1.480;2024-01-11T11:13:47;6.30;99.90
21259;DHT22;10787;53.364;-1.480;2024-01-11T11:16:32;6.30;99.90
21259;DHT22;10787;53.364;-1.480;2024-01-11T11:19:18;6.40;99.90
21259;DHT22;10787;53.364;-1.480;2024-01-11T11:22:06;6.40;99.90
21259;DHT22;10787;53.364;-1.480;2024-01-11T11:25:07;6.50;99.90
21259;DHT22;10787;53.364;-1.480;2024-01-11T11:27:53;6.50;99.90
21259;DHT22;10787;53.364;-1.480;2024-01-11T11:30:38;6.50;99.90
21259;DHT22;10787;53.364;-1.480;2024-01-11T11:33:24;6.50;99.90
21259;DHT22;10787;53.364;-1.480;2024-01-11T11:36:12;6.50;99.90
21259;DHT22;10787;53.364;-1.480;2024-01-11T11:38:59;6.40;99.90
21259;DHT22;10787;53.364;-1.480;2024-01-11T11:41:45;6.50;99.90
21259;DHT22;10787;53.364;-1.480;2024-01-11T11:44:31;6.50;99.90
21259;DHT22;10787;53.364;-1.480;2024-01-11T11:47:20;6.60;99.90
21259;DHT22;10787;53.364;-1.480;2024-01-11T11:50:09;6.60;99.90
21259;DHT22;10787;53.364;-1.480;2024-01-11T11:52:57;6.60;99.90
21259;DHT22;10787;53.364;-1.480;2024-01-11T11:55:41;6.60;99.90
21259;DHT22;10787;53.364;-1.480;2024-01-11T11:58:30;6.60;99.90
21259;DHT22;10787;53.364;-1.480;2024-01-11T12:01:15;6.60;99.90
21259;DHT22;10787;53.364;-1.480;2024-01-11T12:04:01;6.60;99.90
21259;DHT22;10787;53.364;-1.480;2024-01-11T12:06:46;6.60;99.90
21259;DHT22;10787;53.364;-1.480;2024-01-11T12:09:31;6.70;99.90
21259;DHT22;10787;53.364;-1.480;2024-01-11T12:12:16;6.70;99.90
21259;DHT22;10787;53.364;-1.480;2024-01-11T12:15:05;6.70;99.90
21259;DHT22;10787;53.364;-1.480;2024-01-11T12:17:50;6.60;99.90
21259;DHT22;10787;53.364;-1.480;2024-01-11T12:20:34;6.70;99.90
21259;DHT22;10787;53.364;-1.480;2024-01-11T12:23:19;6.60;99.90
21259;DHT22;10787;53.364;-1.480;2024-01-11T12:26:06;6.60;99.90
21259;DHT22;10787;53.364;-1.480;2024-01-11T12:28:55;6.50;99.90
21259;DHT22;10787;53.364;-1.480;2024-01-11T12:31:40;6.50;99.90
21259;DHT22;10787;53.364;-1.480;2024-01-11T12:34:27;6.40;99.90
21259;DHT22;10787;53.364;-1.480;2024-01-11T12:37:11;6.40;99.90
21259;DHT22;10787;53.364;-1.480;2024-01-11T12:39:59;6.30;99.90
21259;DHT22;10787;53.364;-1.480;2024-01-11T12:42:44;6.30;99.90
21259;DHT22;10787;53.364;-1.480;2024-01-11T12:45:28;6.30;99.90
21259;DHT22;10787;53.364;-1.480;2024-01-11T12:48:13;6.30;99.90
21259;DHT22;10787;53.364;-1.480;2024-01-11T12:51:00;6.30;99.90
21259;DHT22;10787;53.364;-1.480;2024-01-11T12:53:47;6.30;99.90
21259;DHT22;10787;53.364;-1.480;2024-01-11T12:56:33;6.30;99.90
21259;DHT22;10787;53.364;-1.480;2024-01-11T12:59:17;6.40;99.90
21259;DHT22;10787;53.364;-1.480;2024-01-11T13:02:01;6.40;99.90
21259;DHT22;10787;53.364;-1.480;2024-01-11T13:04:46;6.50;99.90
21259;DHT22;10787;53.364;-1.480;2024-01-11T13:07:31;6.50;99.90
21259;DHT22;10787;53.364;-1.480;2024-01-11T13:10:16;6.60;99.90
21259;DHT22;10787;53.364;-1.480;2024-01-11T13:13:01;6.60;99.90
21259;DHT22;10787;53.364;-1.480;2024-01-11T13:15:46;6.60;99.90
21259;DHT22;10787;53.364;-1.480;2024-01-11T13:18:30;6.70;99.90
21259;DHT22;10787;53.364;-1.480;2024-01-11T13:21:15;6.70;99.90
21259;DHT22;10787;53.364;-1.480;2024-01-11T13:23:59;6.70;99.90
21259;DHT22;10787;53.364;-1.480;2024-01-11T13:26:44;6.70;99.90
21259;DHT22;10787;53.364;-1.480;2024-01-11T13:29:29;6.70;99.90
21259;DHT22;10787;53.364;-1.480;2024-01-11T13:32:13;6.70;99.90
21259;DHT22;10787;53.364;-1.480;2024-01-11T13:34:58;6.70;99.90
21259;DHT22;10787;53.364;-1.480;2024-01-11T13:37:42;6.70;99.90
21259;DHT22;10787;53.364;-1.480;2024-01-11T13:40:26;6.70;99.90
21259;DHT22;10787;53.364;-1.480;2024-01-11T13:43:13;6.70;99.90
21259;DHT22;10787;53.364;-1.480;2024-01-11T13:45:58;6.70;99.90
21259;DHT22;10787;53.364;-1.480;2024-01-11T13:48:42;6.60;99.90
21259;DHT22;10787;53.364;-1.480;2024-01-11T13:51:26;6.60;99.90
21259;DHT22;10787;53.364;-1.480;2024-01-11T13:54:10;6.60;99.90
21259;DHT22;10787;53.364;-1.480;2024-01-11T13:56:54;6.60;99.90
21259;DHT22;10787;53.364;-1.480;2024-01-11T13:59:39;6.50;99.90
21259;DHT22;10787;53.364;-1.480;2024-01-11T14:02:23;6.50;99.90
21259;DHT22;10787;53.364;-1.480;2024-01-11T14:05:08;6.50;99.90
21259;DHT22;10787;53.364;-1.480;2024-01-11T14:07:55;6.50;99.90
21259;DHT22;10787;53.364;-1.480;2024-01-11T14:10:43;6.50;99.90
21259;DHT22;10787;53.364;-1.480;2024-01-11T14:13:27;6.40;99.90
21259;DHT22;10787;53.364;-1.480;2024-01-11T14:16:11;6.40;99.90
21259;DHT22;10787;53.364;-1.480;2024-01-11T14:18:57;6.40;99.90
21259;DHT22;10787;53.364;-1.480;2024-01-11T14:21:41;6.40;99.90
21259;DHT22;10787;53.364;-1.480;2024-01-11T14:24:26;6.50;99.90
21259;DHT22;10787;53.364;-1.480;2024-01-11T14:27:10;6.50;99.90
21259;DHT22;10787;53.364;-1.480;2024-01-11T14:29:55;6.60;99.90
21259;DHT22;10787;53.364;-1.480;2024-01-11T14:32:40;6.60;99.90
21259;DHT22;10787;53.364;-1.480;2024-01-11T14:35:27;6.60;99.90
21259;DHT22;10787;53.364;-1.480;2024-01-11T14:38:11;6.60;99.90
21259;DHT22;10787;53.364;-1.480;2024-01-11T14:40:56;6.60;99.90
21259;DHT22;10787;53.364;-1.480;2024-01-11T14:43:40;6.60;99.90
21259;DHT22;10787;53.364;-1.480;2024-01-11T14:46:24;6.60;99.90
21259;DHT22;10787;53.364;-1.480;2024-01-11T14:49:09;6.60;99.90
21259;DHT22;10787;53.364;-1.480;2024-01-11T14:51:54;6.60;99.90
21259;DHT22;10787;53.364;-1.480;2024-01-11T14:54:38;6.60;99.90
21259;DHT22;10787;53.364;-1.480;2024-01-11T14:57:22;6.60;99.90
21259;DHT22;10787;53.364;-1.480;2024-01-11T15:00:07;6.60;99.90
21259;DHT22;10787;53.364;-1.480;2024-01-11T15:02:52;6.60;99.90
21259;DHT22;10787;53.364;-1.480;2024-01-11T15:05:37;6.60;99.90
21259;DHT22;10787;53.364;-1.480;2024-01-11T15:08:21;6.60;99.90
21259;DHT22;10787;53.364;-1.480;2024-01-11T15:11:06;6.60;99.90
21259;DHT22;10787;53.364;-1.480;2024-01-11T15:13:51;6.60;99.90
21259;DHT22;10787;53.364;-1.480;2024-01-11T15:16:36;6.60;99.90
21259;DHT22;10787;53.364;-1.480;2024-01-11T15:19:21;6.60;99.90
21259;DHT22;10787;53.364;-1.480;2024-01-11T15:22:05;6.50;99.90
21259;DHT22;10787;53.364;-1.480;2024-01-11T15:24:52;6.50;99.90
21259;DHT22;10787;53.364;-1.480;2024-01-11T15:27:37;6.50;99.90
21259;DHT22;10787;53.364;-1.480;2024-01-11T15:30:21;6.50;99.90
21259;DHT22;10787;53.364;-1.480;2024-01-11T15:33:07;6.50;99.90
21259;DHT22;10787;53.364;-1.480;2024-01-11T15:35:51;6.50;99.90
21259;DHT22;10787;53.364;-1.480;2024-01-11T15:38:35;6.50;99.90
21259;DHT22;10787;53.364;-1.480;2024-01-11T15:41:19;6.50;99.90
21259;DHT22;10787;53.364;-1.480;2024-01-11T15:44:03;6.50;99.90
21259;DHT22;10787;53.364;-1.480;2024-01-11T15:46:48;6.50;99.90
21259;DHT22;10787;53.364;-1.480;2024-01-11T15:49:32;6.40;99.90
21259;DHT22;10787;53.364;-1.480;2024-01-11T15:52:17;6.40;99.90
21259;DHT22;10787;53.364;-1.480;2024-01-11T15:55:01;6.40;99.90
21259;DHT22;10787;53.364;-1.480;2024-01-11T15:57:47;6.40;99.90
21259;DHT22;10787;53.364;-1.480;2024-01-11T16:00:31;6.40;99.90
21259;DHT22;10787;53.364;-1.480;2024-01-11T16:03:16;6.40;99.90
21259;DHT22;10787;53.364;-1.480;2024-01-11T16:06:00;6.40;99.90
21259;DHT22;10787;53.364;-1.480;2024-01-11T16:08:45;6.30;99.90
21259;DHT22;10787;53.364;-1.480;2024-01-11T16:11:31;6.30;99.90
21259;DHT22;10787;53.364;-1.480;2024-01-11T16:14:15;6.30;99.90
21259;DHT22;10787;53.364;-1.480;2024-01-11T16:17:00;6.30;99.90
21259;DHT22;10787;53.364;-1.480;2024-01-11T16:19:44;6.30;99.90
21259;DHT22;10787;53.364;-1.480;2024-01-11T16:22:28;6.30;99.90
21259;DHT22;10787;53.364;-1.480;2024-01-11T16:25:13;6.30;99.90
21259;DHT22;10787;53.364;-1.480;2024-01-11T16:27:58;6.30;99.90
21259;DHT22;10787;53.364;-1.480;2024-01-11T16:30:42;6.30;99.90
21259;DHT22;10787;53.364;-1.480;2024-01-11T16:33:27;6.30;99.90
21259;DHT22;10787;53.364;-1.480;2024-01-11T16:36:12;6.30;99.90
21259;DHT22;10787;53.364;-1.480;2024-01-11T16:38:58;6.20;99.90
21259;DHT22;10787;53.364;-1.480;2024-01-11T16:41:47;6.20;99.90
21259;DHT22;10787;53.364;-1.480;2024-01-11T16:44:31;6.20;99.90
21259;DHT22;10787;53.364;-1.480;2024-01-11T16:47:16;6.20;99.90
21259;DHT22;10787;53.364;-1.480;2024-01-11T16:50:00;6.20;99.90
21259;DHT22;10787;53.364;-1.480;2024-01-11T16:52:44;6.20;99.90
21259;DHT22;10787;53.364;-1.480;2024-01-11T16:55:29;6.20;99.90
21259;DHT22;10787;53.364;-1.480;2024-01-11T16:58:14;6.20;99.90
21259;DHT22;10787;53.364;-1.480;2024-01-11T17:00:58;6.20;99.90
21259;DHT22;10787;53.364;-1.480;2024-01-11T17:03:42;6.20;99.90
21259;DHT22;10787;53.364;-1.480;2024-01-11T17:06:27;6.20;99.90
21259;DHT22;10787;53.364;-1.480;2024-01-11T17:09:11;6.20;99.90
21259;DHT22;10787;53.364;-1.480;2024-01-11T17:11:55;6.20;99.90
21259;DHT22;10787;53.364;-1.480;2024-01-11T17:14:39;6.20;99.90
21259;DHT22;10787;53.364;-1.480;2024-01-11T17:17:23;6.20;99.90
21259;DHT22;10787;53.364;-1.480;2024-01-11T17:20:10;6.20;99.90